Terminal Aerodrome Forecast
Issued by NWS

Home | Current Version | Previous Version | Text Only | Print | Product List | Glossary On
Versions: 1 2 3 4 5 6 7 8 9 10 11 12 13
000
FTUS44 KEPZ 240500
TAFTCS
TAF
KTCS 240529Z 2406/2506 35004KT P6SM FEW090 SCT150
     FM241400 09005KT P6SM SCT180
     FM241800 16009KT P6SM FEW110 SCT180
     FM250300 26006KT P6SM FEW100 SCT180=

USA.gov is the U.S. government's official web portal to all federal, state and local government web resources and services.